createdAt,value
2023-02-11T00:00:05.371Z,2.42
2023-02-11T00:02:33.083Z,2.48
2023-02-11T00:05:01.375Z,2.43
2023-02-11T00:07:29.593Z,2.35
2023-02-11T00:09:57.031Z,2.17
2023-02-11T00:12:24.360Z,2.19
2023-02-11T00:14:53.023Z,2.30
2023-02-11T00:17:20.304Z,2.24
2023-02-11T00:19:50.926Z,2.16
2023-02-11T00:22:18.354Z,2.30
2023-02-11T00:24:46.003Z,2.23
2023-02-11T00:27:13.312Z,2.39
2023-02-11T00:29:40.696Z,2.58
2023-02-11T00:32:09.307Z,2.78
2023-02-11T00:34:38.044Z,2.89
2023-02-11T00:37:05.531Z,2.92
2023-02-11T00:39:33.049Z,3.02
2023-02-11T00:42:00.500Z,3.05
2023-02-11T00:44:27.794Z,3.06
2023-02-11T00:46:56.205Z,3.10
2023-02-11T00:49:25.249Z,2.92
2023-02-11T00:51:52.559Z,3.14
2023-02-11T00:54:19.903Z,3.16
2023-02-11T00:56:47.220Z,3.06
2023-02-11T00:59:14.864Z,3.24
2023-02-11T01:01:42.203Z,3.29
2023-02-11T01:04:09.591Z,3.27
2023-02-11T01:06:38.215Z,3.27
2023-02-11T01:09:05.517Z,3.35
2023-02-11T01:11:32.933Z,3.36
2023-02-11T01:14:00.313Z,3.35
2023-02-11T01:16:27.654Z,3.48
2023-02-11T01:18:54.939Z,3.46
2023-02-11T01:21:22.267Z,3.53
2023-02-11T01:23:50.863Z,3.58
2023-02-11T01:26:18.187Z,3.65
2023-02-11T01:28:45.641Z,3.59
2023-02-11T01:31:13.006Z,3.67
2023-02-11T01:33:40.387Z,3.87
2023-02-11T01:36:08.127Z,3.84
2023-02-11T01:38:35.841Z,3.83
2023-02-11T01:41:06.503Z,3.96
2023-02-11T01:43:35.725Z,3.95
2023-02-11T01:46:15.385Z,3.92
2023-02-11T01:48:44.789Z,3.78
2023-02-11T01:51:14.116Z,3.81
2023-02-11T01:53:59.121Z,3.79
2023-02-11T01:56:46.585Z,3.75
2023-02-11T01:59:15.891Z,3.86
2023-02-11T02:01:47.972Z,3.83
2023-02-11T02:04:18.417Z,3.95
2023-02-11T02:06:49.966Z,4.00
2023-02-11T02:09:20.958Z,4.01
2023-02-11T02:11:49.887Z,4.21
2023-02-11T02:14:17.220Z,4.12
2023-02-11T02:16:45.603Z,4.21
2023-02-11T02:19:25.722Z,4.19
2023-02-11T02:22:14.031Z,4.21
2023-02-11T02:24:50.402Z,4.33
2023-02-11T02:27:27.296Z,4.27
2023-02-11T02:30:04.166Z,4.21
2023-02-11T02:32:38.043Z,4.26
2023-02-11T02:35:10.714Z,4.19
2023-02-11T02:37:41.361Z,4.34
2023-02-11T02:40:11.919Z,4.34
2023-02-11T02:42:41.012Z,4.45
2023-02-11T02:45:09.381Z,4.59
2023-02-11T02:47:38.028Z,4.59
2023-02-11T02:50:06.676Z,4.66
2023-02-11T02:52:36.239Z,4.68
2023-02-11T02:55:09.913Z,4.65
2023-02-11T02:57:40.604Z,4.59
2023-02-11T03:00:18.753Z,4.62
2023-02-11T03:02:53.134Z,4.65
2023-02-11T03:05:25.211Z,4.60
2023-02-11T03:07:55.597Z,4.75
2023-02-11T03:10:26.154Z,4.82
2023-02-11T03:12:55.003Z,4.90
2023-02-11T03:15:23.788Z,4.97
2023-02-11T03:17:53.791Z,5.04
2023-02-11T03:20:23.027Z,5.00
2023-02-11T03:22:53.451Z,5.00
2023-02-11T03:25:22.023Z,4.93
2023-02-11T03:27:55.134Z,5.03
2023-02-11T03:30:26.493Z,4.93
2023-02-11T03:32:59.129Z,4.94
2023-02-11T03:35:29.086Z,5.05
2023-02-11T03:37:58.798Z,4.97
2023-02-11T03:40:27.229Z,5.00
2023-02-11T03:42:57.818Z,5.02
2023-02-11T03:45:26.607Z,5.00
2023-02-11T03:47:57.155Z,5.01
2023-02-11T03:50:25.739Z,5.01
2023-02-11T03:52:54.402Z,5.09
2023-02-11T03:55:25.799Z,4.97
2023-02-11T03:57:53.226Z,5.07
2023-02-11T04:00:20.716Z,5.04
2023-02-11T04:02:48.119Z,5.14
2023-02-11T04:05:17.401Z,5.14
2023-02-11T04:07:44.691Z,5.18
2023-02-11T04:10:12.423Z,5.20
2023-02-11T04:12:40.057Z,5.10
2023-02-11T04:15:07.992Z,5.17
2023-02-11T04:17:35.267Z,5.19
2023-02-11T04:20:02.634Z,5.24
2023-02-11T04:22:31.943Z,5.26
2023-02-11T04:24:59.314Z,5.28
2023-02-11T04:27:26.631Z,5.30
2023-02-11T04:29:54.131Z,5.31
2023-02-11T04:32:21.474Z,5.31
2023-02-11T04:34:48.813Z,5.32
2023-02-11T04:37:16.347Z,5.30
2023-02-11T04:39:44.988Z,5.31
2023-02-11T04:42:12.334Z,5.27
2023-02-11T04:44:39.686Z,5.28
2023-02-11T04:47:06.990Z,5.22
2023-02-11T04:49:34.312Z,5.26
2023-02-11T04:52:01.655Z,5.32
2023-02-11T04:54:28.949Z,5.28
2023-02-11T04:56:57.568Z,5.22
2023-02-11T04:59:25.099Z,5.28
2023-02-11T05:01:52.406Z,5.16
2023-02-11T05:04:19.853Z,5.14
2023-02-11T05:06:47.147Z,5.10
2023-02-11T05:09:14.565Z,5.10
2023-02-11T05:11:41.846Z,5.01
2023-02-11T05:14:10.471Z,4.86
2023-02-11T05:16:37.794Z,4.77
2023-02-11T05:19:05.354Z,4.82
2023-02-11T05:21:32.662Z,4.90
2023-02-11T05:23:59.982Z,4.78
2023-02-11T05:26:27.308Z,4.70
2023-02-11T05:28:54.648Z,4.76
2023-02-11T05:31:23.407Z,4.81
2023-02-11T05:33:50.737Z,4.57
2023-02-11T05:36:18.095Z,4.76
2023-02-11T05:38:45.389Z,4.79
2023-02-11T05:41:12.720Z,4.67
2023-02-11T05:43:40.034Z,4.64
2023-02-11T05:46:07.399Z,4.62
2023-02-11T05:48:36.051Z,4.66
2023-02-11T05:51:03.366Z,4.63
2023-02-11T05:53:30.643Z,4.67
2023-02-11T05:55:57.922Z,4.73
2023-02-11T05:58:25.214Z,4.73
2023-02-11T06:00:52.499Z,4.70
2023-02-11T06:03:19.812Z,4.69
2023-02-11T06:05:48.699Z,4.59
2023-02-11T06:08:16.098Z,4.51
2023-02-11T06:10:45.603Z,4.54
2023-02-11T06:13:12.962Z,4.54
2023-02-11T06:15:40.343Z,4.64
2023-02-11T06:18:08.617Z,4.59
2023-02-11T06:20:35.940Z,4.66
2023-02-11T06:23:04.756Z,4.63
2023-02-11T06:25:32.109Z,4.69
2023-02-11T06:27:59.395Z,4.74
2023-02-11T06:30:26.684Z,4.72
2023-02-11T06:32:54.681Z,4.67
2023-02-11T06:35:22.066Z,4.73
2023-02-11T06:37:49.682Z,4.80
2023-02-11T06:40:18.379Z,4.72
2023-02-11T06:42:45.708Z,4.74
2023-02-11T06:45:13.920Z,4.82
2023-02-11T06:47:41.974Z,4.87
2023-02-11T06:50:11.828Z,4.87
2023-02-11T06:52:39.151Z,4.91
2023-02-11T06:55:06.764Z,4.93
2023-02-11T06:57:35.399Z,5.03
2023-02-11T07:00:02.762Z,4.96
2023-02-11T07:02:30.123Z,4.93
2023-02-11T07:04:57.447Z,5.04
2023-02-11T07:07:24.715Z,4.97
2023-02-11T07:09:52.072Z,4.98
2023-02-11T07:12:19.355Z,5.05
2023-02-11T07:14:48.051Z,5.02
2023-02-11T07:17:15.382Z,5.01
2023-02-11T07:19:42.788Z,5.03
2023-02-11T07:22:10.116Z,5.12
2023-02-11T07:24:37.406Z,5.01
2023-02-11T07:27:04.766Z,4.99
2023-02-11T07:29:32.093Z,5.00
2023-02-11T07:32:00.734Z,5.05
2023-02-11T07:34:28.345Z,5.08
2023-02-11T07:36:55.710Z,4.96
2023-02-11T07:39:27.142Z,5.03
2023-02-11T07:41:54.508Z,5.11
2023-02-11T07:44:21.793Z,5.11
2023-02-11T07:46:49.347Z,4.99
2023-02-11T07:49:18.828Z,5.17
2023-02-11T07:51:47.148Z,5.00
2023-02-11T07:54:14.431Z,5.00
2023-02-11T07:56:41.729Z,5.11
2023-02-11T07:59:09.064Z,5.21
2023-02-11T08:01:36.333Z,5.06
2023-02-11T08:04:04.729Z,4.99
2023-02-11T08:06:34.313Z,5.18
2023-02-11T08:09:05.111Z,5.03
2023-02-11T08:11:32.741Z,5.21
2023-02-11T08:14:00.096Z,5.37
2023-02-11T08:16:29.236Z,5.27
2023-02-11T08:18:57.511Z,5.30
2023-02-11T08:21:25.181Z,5.51
2023-02-11T08:23:54.121Z,5.41
2023-02-11T08:26:22.934Z,5.33
2023-02-11T08:28:50.974Z,5.36
2023-02-11T08:31:19.860Z,5.38
2023-02-11T08:33:47.644Z,5.54
2023-02-11T08:36:16.247Z,5.56
2023-02-11T08:38:43.849Z,5.55
2023-02-11T08:41:14.788Z,5.34
2023-02-11T08:43:43.039Z,5.39
2023-02-11T08:46:12.955Z,5.41
2023-02-11T08:48:40.270Z,5.38
2023-02-11T08:51:08.807Z,5.49
2023-02-11T08:53:36.147Z,5.39
2023-02-11T08:56:03.893Z,5.55
2023-02-11T08:58:32.878Z,5.59
2023-02-11T09:01:00.503Z,5.58
2023-02-11T09:03:28.002Z,5.58
2023-02-11T09:05:56.811Z,5.50
2023-02-11T09:08:24.075Z,5.58
2023-02-11T09:10:51.616Z,5.53
2023-02-11T09:13:19.022Z,5.60
2023-02-11T09:15:47.639Z,5.68
2023-02-11T09:18:15.215Z,5.70
2023-02-11T09:20:42.789Z,5.78
2023-02-11T09:23:10.864Z,5.67
2023-02-11T09:25:39.873Z,5.77
2023-02-11T09:28:07.533Z,5.95
2023-02-11T09:30:34.924Z,5.95
2023-02-11T09:33:03.808Z,5.88
2023-02-11T09:35:31.092Z,5.75
2023-02-11T09:37:58.366Z,5.79
2023-02-11T09:40:25.645Z,5.68
2023-02-11T09:42:57.468Z,5.70
2023-02-11T09:45:28.641Z,5.81
2023-02-11T09:47:57.988Z,5.80
2023-02-11T09:50:29.964Z,5.79
2023-02-11T09:52:59.159Z,5.79
2023-02-11T09:55:28.038Z,5.94
2023-02-11T09:57:56.594Z,5.92
2023-02-11T10:00:26.444Z,5.82
2023-02-11T10:03:10.318Z,5.86
2023-02-11T10:05:44.926Z,5.80
2023-02-11T10:08:17.033Z,5.92
2023-02-11T10:10:47.202Z,6.02
2023-02-11T10:13:26.039Z,5.96
2023-02-11T10:15:58.826Z,6.16
2023-02-11T10:18:41.436Z,6.22
2023-02-11T10:21:16.744Z,6.39
2023-02-11T10:23:46.690Z,6.32
2023-02-11T10:26:15.352Z,6.43
2023-02-11T10:28:45.095Z,6.42
2023-02-11T10:31:16.200Z,6.36
2023-02-11T10:33:45.894Z,6.32
2023-02-11T10:36:15.679Z,6.33
2023-02-11T10:38:43.471Z,6.34
2023-02-11T10:41:11.264Z,6.39
2023-02-11T10:43:38.582Z,6.32
2023-02-11T10:46:06.652Z,6.56
2023-02-11T10:48:38.365Z,6.62
2023-02-11T10:51:08.307Z,6.67
2023-02-11T10:53:37.049Z,6.63
2023-02-11T10:56:05.009Z,6.56
2023-02-11T10:58:35.261Z,6.72
2023-02-11T11:01:04.975Z,6.88
2023-02-11T11:03:37.686Z,6.77
2023-02-11T11:06:06.690Z,6.94
2023-02-11T11:08:45.199Z,6.81
2023-02-11T11:11:13.325Z,7.04
2023-02-11T11:13:41.733Z,6.84
2023-02-11T11:16:19.777Z,6.92
2023-02-11T11:18:48.334Z,6.90
2023-02-11T11:21:17.013Z,6.98
2023-02-11T11:23:50.198Z,6.97
2023-02-11T11:26:18.393Z,7.01
2023-02-11T11:28:52.080Z,7.04
2023-02-11T11:31:21.286Z,7.20
2023-02-11T11:33:49.139Z,7.20
2023-02-11T11:36:18.259Z,7.14
2023-02-11T11:38:50.116Z,7.14
2023-02-11T11:41:20.219Z,7.02
2023-02-11T11:43:57.465Z,7.02
2023-02-11T11:46:26.281Z,7.07
2023-02-11T11:48:55.405Z,6.97
2023-02-11T11:51:24.644Z,7.15
2023-02-11T11:53:54.346Z,7.22
2023-02-11T11:56:24.198Z,7.07
2023-02-11T11:58:51.617Z,7.17
2023-02-11T12:01:24.368Z,7.14
2023-02-11T12:04:16.107Z,7.17
2023-02-11T12:06:51.065Z,7.27
2023-02-11T12:09:24.502Z,7.11
2023-02-11T12:12:02.364Z,7.06
2023-02-11T12:14:38.695Z,7.22
2023-02-11T12:17:10.227Z,7.12
2023-02-11T12:19:56.285Z,6.90
2023-02-11T12:22:32.177Z,7.12
2023-02-11T12:25:20.615Z,7.04
2023-02-11T12:27:53.118Z,7.09
2023-02-11T12:30:29.214Z,7.13
2023-02-11T12:33:00.159Z,7.20
2023-02-11T12:35:31.664Z,7.01
2023-02-11T12:38:08.122Z,7.03
2023-02-11T12:40:38.780Z,7.07
2023-02-11T12:43:16.622Z,7.05
2023-02-11T12:45:50.547Z,6.83
2023-02-11T12:48:23.618Z,6.83
2023-02-11T12:50:56.728Z,6.83
2023-02-11T12:53:30.646Z,6.86
2023-02-11T12:56:01.474Z,6.68
2023-02-11T12:58:43.979Z,6.73
2023-02-11T13:01:16.061Z,6.85
2023-02-11T13:03:46.980Z,6.87
2023-02-11T13:06:16.104Z,6.85
2023-02-11T13:08:45.897Z,6.87
2023-02-11T13:11:16.460Z,6.82
2023-02-11T13:13:50.965Z,6.78
2023-02-11T13:16:20.850Z,6.74
2023-02-11T13:18:51.347Z,6.83
2023-02-11T13:21:34.580Z,6.86
2023-02-11T13:24:06.168Z,6.75
2023-02-11T13:26:38.258Z,6.77
2023-02-11T13:29:12.811Z,6.87
2023-02-11T13:31:40.229Z,6.81
2023-02-11T13:34:23.900Z,6.85
2023-02-11T13:36:57.733Z,6.81
2023-02-11T13:39:25.410Z,6.88
2023-02-11T13:42:02.740Z,6.86
2023-02-11T13:44:34.615Z,6.90
2023-02-11T13:47:04.564Z,6.84
2023-02-11T13:49:35.262Z,6.90
2023-02-11T13:52:04.010Z,6.93
2023-02-11T13:54:33.296Z,7.00
2023-02-11T13:57:19.036Z,6.94
2023-02-11T13:59:48.715Z,6.84
2023-02-11T14:02:41.932Z,7.00
2023-02-11T14:05:40.939Z,6.97
2023-02-11T14:08:31.229Z,6.84
2023-02-11T14:10:59.722Z,7.02
2023-02-11T14:13:28.371Z,6.98
2023-02-11T14:16:08.058Z,6.99
2023-02-11T14:18:53.112Z,6.86
2023-02-11T14:21:23.003Z,6.87
2023-02-11T14:23:53.281Z,6.93
2023-02-11T14:26:28.784Z,6.93
2023-02-11T14:29:01.383Z,6.88
2023-02-11T14:31:35.818Z,6.97
2023-02-11T14:34:15.558Z,6.87
2023-02-11T14:36:55.618Z,6.88
2023-02-11T14:39:26.153Z,6.78
2023-02-11T14:41:54.119Z,6.86
2023-02-11T14:44:22.897Z,6.94
2023-02-11T14:46:53.413Z,6.97
2023-02-11T14:49:25.031Z,6.99
2023-02-11T14:51:53.833Z,6.92
2023-02-11T14:54:24.857Z,6.89
2023-02-11T14:57:06.397Z,6.95
2023-02-11T14:59:33.767Z,7.01
2023-02-11T15:02:02.506Z,6.93
2023-02-11T15:04:30.779Z,6.87
2023-02-11T15:06:59.325Z,6.98
2023-02-11T15:09:32.461Z,6.97
2023-02-11T15:11:59.888Z,6.92
2023-02-11T15:14:28.407Z,6.95
2023-02-11T15:16:59.227Z,7.03
2023-02-11T15:19:33.050Z,6.87
2023-02-11T15:22:01.559Z,6.97
2023-02-11T15:24:29.645Z,6.99
2023-02-11T15:26:57.622Z,7.02
2023-02-11T15:29:25.438Z,6.92
2023-02-11T15:32:04.226Z,6.99
2023-02-11T15:34:33.022Z,6.94
2023-02-11T15:37:00.349Z,6.97
2023-02-11T15:39:32.297Z,7.09
2023-02-11T15:42:14.733Z,7.07
2023-02-11T15:44:42.342Z,7.02
2023-02-11T15:47:10.978Z,7.07
2023-02-11T15:49:40.202Z,7.06
2023-02-11T15:52:08.349Z,7.09
2023-02-11T15:54:35.666Z,7.08
2023-02-11T15:57:04.162Z,7.10
2023-02-11T15:59:35.243Z,6.93
2023-02-11T16:02:07.362Z,7.04
2023-02-11T16:04:35.100Z,6.93
2023-02-11T16:07:05.071Z,6.98
2023-02-11T16:09:33.609Z,6.99
2023-02-11T16:12:03.019Z,6.85
2023-02-11T16:14:32.287Z,6.74
2023-02-11T16:17:02.917Z,6.65
2023-02-11T16:19:30.762Z,6.77
2023-02-11T16:21:59.559Z,6.72
2023-02-11T16:24:29.305Z,6.72
2023-02-11T16:26:58.516Z,6.68
2023-02-11T16:29:27.182Z,6.66
2023-02-11T16:31:56.104Z,6.68
2023-02-11T16:34:24.703Z,6.54
2023-02-11T16:36:52.785Z,6.64
2023-02-11T16:39:21.551Z,6.58
2023-02-11T16:41:51.478Z,6.62
2023-02-11T16:44:18.776Z,6.51
2023-02-11T16:46:46.592Z,6.43
2023-02-11T16:49:17.193Z,6.35
2023-02-11T16:51:45.835Z,6.32
2023-02-11T16:54:14.622Z,6.24
2023-02-11T16:56:41.955Z,6.30
2023-02-11T16:59:10.613Z,6.22
2023-02-11T17:01:38.917Z,6.30
2023-02-11T17:04:07.111Z,6.26
2023-02-11T17:06:35.177Z,6.31
2023-02-11T17:09:02.473Z,6.21
2023-02-11T17:11:30.050Z,6.19
2023-02-11T17:14:00.612Z,6.23
2023-02-11T17:16:29.829Z,6.13
2023-02-11T17:18:57.557Z,6.11
2023-02-11T17:21:29.525Z,6.16
2023-02-11T17:23:57.201Z,6.11
2023-02-11T17:26:24.481Z,5.94
2023-02-11T17:28:51.814Z,6.03
2023-02-11T17:31:19.399Z,6.00
2023-02-11T17:33:48.275Z,6.06
2023-02-11T17:36:15.593Z,6.20
2023-02-11T17:38:42.866Z,6.30
2023-02-11T17:41:10.196Z,6.32
2023-02-11T17:43:37.493Z,6.30
2023-02-11T17:46:06.689Z,6.43
2023-02-11T17:48:34.123Z,6.33
2023-02-11T17:51:03.128Z,6.31
2023-02-11T17:53:30.769Z,6.41
2023-02-11T17:55:58.138Z,6.34
2023-02-11T17:58:25.417Z,6.30
2023-02-11T18:00:53.043Z,6.26
2023-02-11T18:03:20.363Z,6.25
2023-02-11T18:05:47.630Z,6.37
2023-02-11T18:08:16.248Z,6.29
2023-02-11T18:10:44.196Z,6.25
2023-02-11T18:13:11.453Z,6.13
2023-02-11T18:15:38.719Z,6.14
2023-02-11T18:18:06.027Z,6.19
2023-02-11T18:20:33.353Z,6.14
2023-02-11T18:23:00.640Z,6.23
2023-02-11T18:25:29.940Z,6.24
2023-02-11T18:27:57.266Z,6.26
2023-02-11T18:30:24.651Z,6.25
2023-02-11T18:32:54.036Z,6.19
2023-02-11T18:35:21.305Z,6.17
2023-02-11T18:37:48.587Z,6.28
2023-02-11T18:40:16.547Z,6.15
2023-02-11T18:42:46.210Z,6.20
2023-02-11T18:45:14.942Z,6.14
2023-02-11T18:47:42.472Z,6.17
2023-02-11T18:50:10.379Z,6.12
2023-02-11T18:52:38.414Z,6.11
2023-02-11T18:55:06.012Z,6.12
2023-02-11T18:57:33.289Z,6.18
2023-02-11T19:00:01.917Z,6.12
2023-02-11T19:02:29.480Z,6.26
2023-02-11T19:04:56.778Z,6.26
2023-02-11T19:07:25.118Z,6.31
2023-02-11T19:09:52.392Z,6.35
2023-02-11T19:12:19.654Z,6.34
2023-02-11T19:14:46.936Z,6.21
2023-02-11T19:17:15.568Z,6.27
2023-02-11T19:19:43.003Z,6.25
2023-02-11T19:22:10.862Z,6.21
2023-02-11T19:24:38.656Z,6.32
2023-02-11T19:27:06.096Z,6.23
2023-02-11T19:29:35.115Z,6.33
2023-02-11T19:32:02.919Z,6.28
2023-02-11T19:34:31.636Z,6.37
2023-02-11T19:37:00.787Z,6.35
2023-02-11T19:39:28.138Z,6.43
2023-02-11T19:41:55.475Z,6.38
2023-02-11T19:44:22.757Z,6.37
2023-02-11T19:46:52.748Z,6.36
2023-02-11T19:49:23.363Z,6.34
2023-02-11T19:51:52.705Z,6.42
2023-02-11T19:54:20.757Z,6.45
2023-02-11T19:56:48.696Z,6.37
2023-02-11T19:59:16.660Z,6.44
2023-02-11T20:01:47.488Z,6.39
2023-02-11T20:04:15.218Z,6.42
2023-02-11T20:06:42.475Z,6.40
2023-02-11T20:09:13.228Z,6.33
2023-02-11T20:11:40.799Z,6.23
2023-02-11T20:14:08.556Z,6.33
2023-02-11T20:16:47.391Z,6.29
2023-02-11T20:19:17.718Z,6.34
2023-02-11T20:21:47.218Z,6.39
2023-02-11T20:24:16.228Z,6.42
2023-02-11T20:26:45.085Z,6.43
2023-02-11T20:29:12.367Z,6.45
2023-02-11T20:31:39.732Z,6.39
2023-02-11T20:34:07.214Z,6.38
2023-02-11T20:36:35.668Z,6.38
2023-02-11T20:39:04.731Z,6.39
2023-02-11T20:41:34.539Z,6.25
2023-02-11T20:44:02.868Z,6.31
2023-02-11T20:46:30.977Z,6.40
2023-02-11T20:48:58.559Z,6.34
2023-02-11T20:51:27.474Z,6.38
2023-02-11T20:53:55.319Z,6.43
2023-02-11T20:56:24.136Z,6.39
2023-02-11T20:58:53.235Z,6.34
2023-02-11T21:01:21.582Z,6.30
2023-02-11T21:03:50.805Z,6.35
2023-02-11T21:06:20.500Z,6.28
2023-02-11T21:08:47.901Z,6.27
2023-02-11T21:11:15.643Z,6.37
2023-02-11T21:13:43.748Z,6.45
2023-02-11T21:16:16.023Z,6.54
2023-02-11T21:18:44.558Z,6.60
2023-02-11T21:21:11.862Z,6.63
2023-02-11T21:23:39.746Z,6.49
2023-02-11T21:26:07.529Z,6.53
2023-02-11T21:28:35.155Z,6.51
2023-02-11T21:31:03.049Z,6.58
2023-02-11T21:33:33.508Z,6.45
2023-02-11T21:36:01.421Z,6.58
2023-02-11T21:38:28.989Z,6.52
2023-02-11T21:40:56.367Z,6.63
2023-02-11T21:43:23.652Z,6.46
2023-02-11T21:45:52.162Z,6.57
2023-02-11T21:48:19.534Z,6.56
2023-02-11T21:50:48.382Z,6.53
2023-02-11T21:53:15.910Z,6.68
2023-02-11T21:55:43.214Z,6.51
2023-02-11T21:58:11.305Z,6.69
2023-02-11T22:00:38.830Z,6.60
2023-02-11T22:03:06.138Z,6.65
2023-02-11T22:05:33.420Z,6.64
2023-02-11T22:08:05.370Z,6.61
2023-02-11T22:10:32.645Z,6.57
2023-02-11T22:12:59.901Z,6.62
2023-02-11T22:15:27.153Z,6.60
2023-02-11T22:17:54.440Z,6.52
2023-02-11T22:20:21.895Z,6.53
2023-02-11T22:22:49.155Z,6.61
2023-02-11T22:25:17.965Z,6.58
2023-02-11T22:27:45.288Z,6.57
2023-02-11T22:30:14.127Z,6.52
2023-02-11T22:32:42.489Z,6.51
2023-02-11T22:35:09.777Z,6.44
2023-02-11T22:37:37.377Z,6.55
2023-02-11T22:40:04.902Z,6.56
2023-02-11T22:42:33.512Z,6.70
2023-02-11T22:45:00.792Z,6.71
2023-02-11T22:47:28.209Z,6.77
2023-02-11T22:49:55.475Z,6.71
2023-02-11T22:52:23.676Z,6.65
2023-02-11T22:54:51.546Z,6.68
2023-02-11T22:57:18.835Z,6.72
2023-02-11T22:59:48.885Z,6.69
2023-02-11T23:02:16.279Z,6.64
2023-02-11T23:04:43.594Z,6.62
2023-02-11T23:07:10.900Z,6.61
2023-02-11T23:09:38.204Z,6.75
2023-02-11T23:12:05.906Z,6.78
2023-02-11T23:14:33.185Z,6.82
2023-02-11T23:17:01.769Z,6.78
2023-02-11T23:19:29.050Z,6.69
2023-02-11T23:21:56.332Z,6.78
2023-02-11T23:24:23.589Z,6.56
2023-02-11T23:26:50.939Z,6.75
2023-02-11T23:29:18.328Z,6.75
2023-02-11T23:31:46.465Z,6.81
2023-02-11T23:34:17.099Z,6.68
2023-02-11T23:36:44.447Z,6.86
2023-02-11T23:39:14.106Z,6.71
2023-02-11T23:41:41.370Z,6.78
2023-02-11T23:44:08.650Z,6.66
2023-02-11T23:46:35.938Z,6.71
2023-02-11T23:49:03.223Z,6.73
2023-02-11T23:51:31.826Z,6.75
2023-02-11T23:53:59.114Z,6.69
2023-02-11T23:56:27.034Z,6.65
2023-02-11T23:58:55.222Z,6.75
